createdAt,value
2017-12-22T00:00:04.845Z,30.90
2017-12-22T00:01:04.822Z,30.90
2017-12-22T00:02:04.802Z,31.50
2017-12-22T00:03:04.793Z,30.80
2017-12-22T00:04:04.767Z,32.10
2017-12-22T00:05:04.753Z,32.60
2017-12-22T00:06:04.733Z,30.90
2017-12-22T00:07:04.707Z,31.80
2017-12-22T00:08:04.694Z,31.00
2017-12-22T00:09:04.669Z,32.60
2017-12-22T00:10:04.692Z,31.80
2017-12-22T00:11:04.631Z,33.00
2017-12-22T00:12:04.613Z,31.80
2017-12-22T00:13:04.600Z,32.40
2017-12-22T00:14:04.571Z,32.90
2017-12-22T00:15:04.571Z,32.30
2017-12-22T00:16:04.538Z,31.30
2017-12-22T00:17:04.523Z,30.60
2017-12-22T00:18:04.495Z,31.40
2017-12-22T00:19:04.474Z,31.00
2017-12-22T00:20:04.458Z,29.90
2017-12-22T00:21:04.440Z,31.40
2017-12-22T00:22:04.420Z,28.50
2017-12-22T00:23:04.401Z,30.50
2017-12-22T00:24:04.379Z,29.80
2017-12-22T00:25:04.365Z,30.60
2017-12-22T00:26:04.353Z,30.60
2017-12-22T00:27:04.325Z,31.90
2017-12-22T00:28:04.311Z,28.40
2017-12-22T00:29:04.293Z,28.70
2017-12-22T00:30:05.256Z,30.10
2017-12-22T00:31:04.253Z,30.00
2017-12-22T00:32:04.238Z,28.30
2017-12-22T00:33:04.211Z,29.70
2017-12-22T00:34:04.190Z,30.00
2017-12-22T00:35:04.172Z,29.20
2017-12-22T00:36:04.158Z,30.90
2017-12-22T00:37:04.140Z,30.10
2017-12-22T00:38:04.121Z,30.10
2017-12-22T00:39:04.103Z,29.50
2017-12-22T00:40:04.081Z,30.00
2017-12-22T00:41:04.059Z,29.30
2017-12-22T00:42:04.037Z,30.40
2017-12-22T00:43:04.022Z,29.60
2017-12-22T00:44:04.000Z,31.30
2017-12-22T00:45:03.983Z,30.20
2017-12-22T00:46:03.970Z,30.30
2017-12-22T00:47:03.943Z,30.10
2017-12-22T00:48:03.932Z,30.30
2017-12-22T00:49:03.905Z,29.50
2017-12-22T00:50:03.890Z,29.80
2017-12-22T00:51:03.876Z,30.00
2017-12-22T00:52:03.849Z,29.80
2017-12-22T00:53:03.837Z,30.60
2017-12-22T00:54:03.813Z,28.90
2017-12-22T00:55:03.800Z,29.50
2017-12-22T00:56:03.777Z,30.40
2017-12-22T00:57:03.769Z,30.40
2017-12-22T00:58:03.741Z,30.70
2017-12-22T00:59:03.723Z,29.30
2017-12-22T01:00:03.705Z,30.40
2017-12-22T01:01:03.681Z,29.50
2017-12-22T01:02:03.672Z,30.50
2017-12-22T01:03:03.650Z,30.00
2017-12-22T01:04:03.627Z,30.00
2017-12-22T01:05:03.605Z,30.00
2017-12-22T01:06:03.592Z,31.80
2017-12-22T01:07:03.570Z,30.90
2017-12-22T01:08:03.550Z,30.10
2017-12-22T01:09:03.532Z,29.50
2017-12-22T01:10:03.520Z,30.40
2017-12-22T01:11:03.493Z,30.90
2017-12-22T01:12:03.478Z,29.90
2017-12-22T01:13:03.455Z,30.50
2017-12-22T01:14:03.439Z,32.40
2017-12-22T01:15:03.426Z,30.90
2017-12-22T01:16:03.400Z,31.00
2017-12-22T01:17:03.380Z,32.50
2017-12-22T01:18:03.370Z,30.60
2017-12-22T01:19:03.346Z,29.60
2017-12-22T01:20:03.329Z,30.40
2017-12-22T01:21:03.312Z,31.50
2017-12-22T01:22:03.288Z,31.40
2017-12-22T01:23:03.274Z,31.70
2017-12-22T01:24:03.249Z,30.80
2017-12-22T01:25:03.238Z,31.40
2017-12-22T01:26:03.215Z,31.70
2017-12-22T01:27:03.193Z,32.80
2017-12-22T01:28:03.180Z,32.20
2017-12-22T01:29:03.160Z,31.40
2017-12-22T01:30:03.139Z,32.00
2017-12-22T01:31:03.119Z,32.60
2017-12-22T01:32:03.119Z,32.20
2017-12-22T01:33:03.094Z,30.30
2017-12-22T01:34:03.069Z,30.80
2017-12-22T01:35:03.048Z,32.50
2017-12-22T01:36:03.029Z,30.90
2017-12-22T01:37:03.009Z,31.80
2017-12-22T01:38:03.001Z,31.50
2017-12-22T01:39:02.980Z,32.60
2017-12-22T01:40:02.961Z,32.60
2017-12-22T01:41:02.935Z,31.70
2017-12-22T01:42:02.916Z,33.10
2017-12-22T01:43:02.911Z,32.20
2017-12-22T01:44:02.880Z,32.30
2017-12-22T01:45:02.871Z,31.50
2017-12-22T01:46:02.850Z,32.30
2017-12-22T01:47:02.827Z,31.70
2017-12-22T01:48:02.808Z,32.70
2017-12-22T01:49:02.787Z,33.00
2017-12-22T01:50:02.779Z,33.20
2017-12-22T01:51:02.750Z,32.50
2017-12-22T01:52:02.733Z,33.70
2017-12-22T01:53:02.716Z,34.30
2017-12-22T01:54:02.708Z,34.40
2017-12-22T01:55:02.680Z,34.30
2017-12-22T01:56:02.659Z,31.90
2017-12-22T01:57:02.639Z,32.50
2017-12-22T01:58:02.622Z,34.60
2017-12-22T01:59:02.609Z,34.20
2017-12-22T02:00:02.586Z,34.20
2017-12-22T02:01:02.570Z,33.80
2017-12-22T02:02:02.550Z,35.40
2017-12-22T02:03:02.529Z,35.10
2017-12-22T02:04:02.515Z,36.80
2017-12-22T02:05:02.495Z,35.50
2017-12-22T02:06:02.488Z,35.30
2017-12-22T02:07:02.471Z,34.80
2017-12-22T02:08:02.436Z,37.80
2017-12-22T02:09:02.423Z,35.80
2017-12-22T02:10:02.403Z,33.80
2017-12-22T02:11:02.394Z,36.10
2017-12-22T02:12:02.362Z,35.60
2017-12-22T02:13:02.349Z,36.80
2017-12-22T02:14:02.330Z,37.70
2017-12-22T02:15:02.313Z,35.60
2017-12-22T02:16:02.291Z,38.10
2017-12-22T02:17:02.272Z,37.40
2017-12-22T02:18:02.262Z,38.50
2017-12-22T02:19:02.241Z,36.60
2017-12-22T02:20:02.220Z,38.60
2017-12-22T02:21:02.198Z,37.00
2017-12-22T02:22:02.183Z,38.40
2017-12-22T02:23:02.163Z,37.70
2017-12-22T02:24:02.151Z,38.80
2017-12-22T02:25:02.125Z,37.60
2017-12-22T02:26:02.111Z,37.90
2017-12-22T02:27:02.085Z,39.10
2017-12-22T02:28:02.071Z,38.00
2017-12-22T02:29:02.048Z,38.40
2017-12-22T02:30:02.040Z,38.70
2017-12-22T02:31:02.021Z,38.00
2017-12-22T02:32:01.999Z,39.60
2017-12-22T02:33:01.978Z,39.10
2017-12-22T02:34:01.958Z,39.40
2017-12-22T02:35:01.940Z,39.30
2017-12-22T02:36:01.919Z,39.70
2017-12-22T02:37:01.903Z,39.70
2017-12-22T02:38:01.897Z,39.00
2017-12-22T02:39:01.864Z,40.90
2017-12-22T02:40:01.851Z,41.00
2017-12-22T02:41:01.833Z,41.30
2017-12-22T02:42:01.814Z,40.60
2017-12-22T02:43:01.799Z,39.30
2017-12-22T02:44:01.781Z,40.70
2017-12-22T02:45:01.761Z,41.30
2017-12-22T02:46:01.740Z,40.80
2017-12-22T02:47:01.720Z,40.40
2017-12-22T02:48:01.700Z,41.70
2017-12-22T02:49:01.685Z,40.70
2017-12-22T02:50:01.666Z,40.70
2017-12-22T02:51:01.643Z,41.60
2017-12-22T02:52:01.629Z,40.20
2017-12-22T02:53:01.614Z,40.30
2017-12-22T02:54:01.588Z,42.60
2017-12-22T02:55:01.581Z,42.40
2017-12-22T02:56:01.557Z,41.60
2017-12-22T02:57:01.537Z,41.70
2017-12-22T02:58:01.516Z,40.90
2017-12-22T02:59:01.494Z,42.60
2017-12-22T03:00:01.479Z,43.40
2017-12-22T03:01:01.459Z,43.10
2017-12-22T03:02:01.449Z,45.00
2017-12-22T03:03:01.428Z,44.00
2017-12-22T03:04:01.411Z,43.90
2017-12-22T03:05:01.388Z,46.00
2017-12-22T03:06:01.370Z,45.20
2017-12-22T03:07:01.352Z,45.90
2017-12-22T03:08:01.336Z,42.90
2017-12-22T03:09:01.320Z,42.40
2017-12-22T03:10:01.300Z,42.50
2017-12-22T03:11:01.278Z,43.30
2017-12-22T03:12:01.258Z,43.30
2017-12-22T03:13:01.240Z,41.00
2017-12-22T03:14:01.234Z,41.40
2017-12-22T03:15:01.202Z,41.40
2017-12-22T03:16:01.189Z,42.10
2017-12-22T03:17:01.170Z,41.00
2017-12-22T03:18:01.147Z,43.20
2017-12-22T03:19:01.134Z,42.50
2017-12-22T03:20:01.110Z,43.40
2017-12-22T03:21:01.094Z,44.80
2017-12-22T03:22:01.073Z,42.20
2017-12-22T03:23:01.053Z,40.60
2017-12-22T03:24:01.041Z,40.70
2017-12-22T03:25:01.016Z,42.90
2017-12-22T03:26:00.999Z,42.20
2017-12-22T03:27:00.987Z,43.40
2017-12-22T03:28:00.969Z,42.50
2017-12-22T03:29:00.946Z,44.70
2017-12-22T03:30:00.928Z,43.80
2017-12-22T03:31:00.914Z,44.90
2017-12-22T03:32:00.887Z,46.70
2017-12-22T03:33:00.871Z,45.30
2017-12-22T03:34:00.855Z,45.90
2017-12-22T03:35:00.840Z,45.40
2017-12-22T03:36:00.815Z,45.50
2017-12-22T03:37:00.797Z,46.20
2017-12-22T03:38:00.778Z,45.70
2017-12-22T03:39:00.762Z,44.90
2017-12-22T03:40:00.746Z,43.10
2017-12-22T03:41:00.723Z,43.70
2017-12-22T03:42:00.707Z,41.90
2017-12-22T03:43:00.688Z,42.50
2017-12-22T03:44:00.667Z,41.30
2017-12-22T03:45:00.658Z,40.80
2017-12-22T03:46:00.637Z,42.60
2017-12-22T03:47:00.616Z,42.50
2017-12-22T03:48:00.601Z,43.10
2017-12-22T03:49:00.580Z,43.10
2017-12-22T03:50:00.557Z,42.50
2017-12-22T03:51:00.539Z,42.30
2017-12-22T03:52:00.527Z,42.70
2017-12-22T03:53:00.503Z,42.80
2017-12-22T03:54:00.486Z,44.10
2017-12-22T03:55:00.468Z,43.90
2017-12-22T03:56:00.449Z,42.80
2017-12-22T03:57:00.429Z,44.40
2017-12-22T03:58:00.412Z,46.90
2017-12-22T03:59:00.391Z,46.60
2017-12-22T04:00:00.379Z,47.20
2017-12-22T04:01:00.360Z,45.80
2017-12-22T04:02:00.337Z,46.30
2017-12-22T04:03:00.319Z,44.70
2017-12-22T04:04:00.298Z,48.70
2017-12-22T04:05:00.282Z,48.30
2017-12-22T04:06:00.266Z,48.30
2017-12-22T04:07:00.249Z,45.80
2017-12-22T04:08:00.242Z,45.30
2017-12-22T04:09:00.209Z,47.40
2017-12-22T04:10:00.188Z,46.60
2017-12-22T04:11:00.171Z,48.80
2017-12-22T04:12:00.155Z,45.30
2017-12-22T04:13:00.139Z,45.20
2017-12-22T04:14:00.118Z,44.10
2017-12-22T04:15:00.096Z,44.40
2017-12-22T04:16:00.080Z,43.10
2017-12-22T04:17:00.064Z,42.40
2017-12-22T04:18:00.046Z,43.60
2017-12-22T04:19:00.030Z,42.30
2017-12-22T04:20:00.010Z,43.10
2017-12-22T04:20:59.988Z,43.50
2017-12-22T04:21:59.980Z,42.30
2017-12-22T04:22:59.949Z,43.90
2017-12-22T04:23:59.937Z,44.00
2017-12-22T04:24:59.919Z,43.00
2017-12-22T04:25:59.904Z,44.40
2017-12-22T04:26:59.877Z,44.30
2017-12-22T04:27:59.859Z,43.90
2017-12-22T04:28:59.844Z,43.60
2017-12-22T04:29:59.830Z,42.30
2017-12-22T04:30:59.811Z,43.80
2017-12-22T04:31:59.790Z,44.00
2017-12-22T04:32:59.767Z,46.10
2017-12-22T04:33:59.755Z,41.70
2017-12-22T04:34:59.732Z,44.80
2017-12-22T04:35:59.709Z,44.60
2017-12-22T04:36:59.691Z,43.70
2017-12-22T04:37:59.670Z,44.90
2017-12-22T04:38:59.651Z,46.50
2017-12-22T04:39:59.639Z,46.00
2017-12-22T04:40:59.619Z,46.30
2017-12-22T04:41:59.600Z,46.00
2017-12-22T04:42:59.578Z,44.40
2017-12-22T04:43:59.559Z,45.80
2017-12-22T04:44:59.550Z,46.00
2017-12-22T04:45:59.527Z,43.70
2017-12-22T04:46:59.508Z,42.20
2017-12-22T04:47:59.495Z,42.90
2017-12-22T04:48:59.472Z,43.80
2017-12-22T04:49:59.457Z,46.70
2017-12-22T04:50:59.433Z,45.70
2017-12-22T04:51:59.416Z,45.70
2017-12-22T04:52:59.451Z,44.00
2017-12-22T04:53:59.381Z,45.10
2017-12-22T04:54:59.359Z,43.20
2017-12-22T04:55:59.340Z,44.40
2017-12-22T04:56:59.319Z,45.30
2017-12-22T04:57:59.311Z,44.60
2017-12-22T04:58:59.282Z,46.20
2017-12-22T04:59:59.268Z,47.80
2017-12-22T05:00:59.248Z,44.90
2017-12-22T05:01:59.232Z,44.60
2017-12-22T05:02:59.210Z,45.80
2017-12-22T05:03:59.187Z,44.70
2017-12-22T05:04:59.170Z,45.90
2017-12-22T05:05:59.159Z,43.80
2017-12-22T05:06:59.135Z,43.20
2017-12-22T05:07:59.117Z,42.70
2017-12-22T05:08:59.094Z,42.90
2017-12-22T05:09:59.081Z,44.20
2017-12-22T05:10:59.059Z,43.50
2017-12-22T05:11:59.049Z,42.60
2017-12-22T05:12:59.038Z,40.70
2017-12-22T05:13:59.006Z,41.60
2017-12-22T05:14:58.989Z,42.40
2017-12-22T05:15:58.969Z,41.00
2017-12-22T05:16:58.950Z,41.00
2017-12-22T05:17:58.928Z,40.40
2017-12-22T05:18:58.914Z,44.10
2017-12-22T05:19:58.895Z,43.00
2017-12-22T05:20:58.875Z,41.70
2017-12-22T05:21:58.858Z,41.20
2017-12-22T05:22:58.837Z,42.80
2017-12-22T05:23:58.819Z,41.20
2017-12-22T05:24:58.809Z,41.70
2017-12-22T05:25:58.784Z,43.90
2017-12-22T05:26:58.764Z,44.80
2017-12-22T05:27:58.745Z,46.80
2017-12-22T05:28:58.730Z,44.50
2017-12-22T05:29:58.708Z,42.30
2017-12-22T05:30:58.693Z,41.70
2017-12-22T05:31:58.670Z,41.60
2017-12-22T05:32:58.656Z,41.80
2017-12-22T05:33:58.638Z,41.00
2017-12-22T05:34:58.617Z,44.10
2017-12-22T05:35:58.600Z,40.90
2017-12-22T05:36:58.578Z,42.60
2017-12-22T05:37:58.560Z,42.30
2017-12-22T05:38:58.539Z,43.90
2017-12-22T05:39:58.520Z,43.50
2017-12-22T05:40:58.509Z,43.40
2017-12-22T05:41:58.483Z,42.70
2017-12-22T05:42:58.468Z,44.20
2017-12-22T05:43:58.459Z,44.40
2017-12-22T05:44:58.432Z,42.50
2017-12-22T05:45:58.418Z,42.80
2017-12-22T05:46:58.390Z,44.50
2017-12-22T05:47:58.374Z,43.30
2017-12-22T05:48:58.353Z,44.40
2017-12-22T05:49:58.334Z,46.30
2017-12-22T05:50:58.319Z,47.70
2017-12-22T05:51:58.295Z,46.20
2017-12-22T05:52:58.282Z,44.70
2017-12-22T05:53:58.259Z,45.80
2017-12-22T05:54:58.245Z,43.50
2017-12-22T05:55:58.223Z,46.10
2017-12-22T05:56:58.220Z,46.90
2017-12-22T05:57:58.188Z,45.60
2017-12-22T05:58:58.164Z,44.00
2017-12-22T05:59:58.152Z,45.90
2017-12-22T06:00:58.126Z,45.50
2017-12-22T06:01:58.110Z,46.00
2017-12-22T06:02:58.088Z,43.80
2017-12-22T06:03:58.069Z,47.40
2017-12-22T06:04:58.052Z,43.90
2017-12-22T06:05:58.045Z,43.00
2017-12-22T06:06:58.012Z,45.20
2017-12-22T06:07:58.001Z,45.60
2017-12-22T06:08:57.982Z,48.10
2017-12-22T06:09:57.958Z,49.80
2017-12-22T06:10:57.936Z,47.50
2017-12-22T06:11:57.920Z,47.00
2017-12-22T06:12:57.899Z,47.20
2017-12-22T06:13:57.878Z,49.40
2017-12-22T06:14:57.868Z,51.50
2017-12-22T06:15:57.846Z,48.40
2017-12-22T06:16:57.825Z,50.60
2017-12-22T06:17:57.810Z,51.00
2017-12-22T06:18:57.787Z,51.10
2017-12-22T06:19:57.769Z,46.00
2017-12-22T06:20:57.749Z,47.40
2017-12-22T06:21:57.729Z,49.50
2017-12-22T06:22:57.967Z,46.40
2017-12-22T06:23:57.690Z,49.60
2017-12-22T06:24:57.680Z,50.60
2017-12-22T06:25:57.661Z,48.70
2017-12-22T06:26:57.636Z,48.90
2017-12-22T06:27:57.620Z,52.20
2017-12-22T06:28:57.601Z,53.20
2017-12-22T06:29:57.581Z,52.20
2017-12-22T06:30:57.559Z,54.70
2017-12-22T06:31:57.542Z,53.60
2017-12-22T06:32:57.517Z,51.80
2017-12-22T06:33:57.502Z,53.10
2017-12-22T06:34:57.482Z,50.20
2017-12-22T06:35:57.470Z,50.00
2017-12-22T06:36:57.446Z,55.10
2017-12-22T06:37:57.425Z,54.00
2017-12-22T06:38:57.412Z,52.90
2017-12-22T06:39:57.386Z,53.20
2017-12-22T06:40:57.370Z,52.40
2017-12-22T06:41:57.351Z,53.20
2017-12-22T06:42:57.331Z,54.00
2017-12-22T06:43:57.315Z,51.30
2017-12-22T06:44:57.288Z,52.70
2017-12-22T06:45:57.268Z,51.20
2017-12-22T06:46:57.249Z,52.70
2017-12-22T06:47:57.238Z,55.50
2017-12-22T06:48:57.217Z,57.50
2017-12-22T06:49:57.243Z,57.50
2017-12-22T06:50:57.180Z,64.40
2017-12-22T06:51:57.158Z,63.70
2017-12-22T06:52:57.141Z,65.60
2017-12-22T06:53:57.118Z,65.00
2017-12-22T06:54:57.110Z,60.10
2017-12-22T06:55:57.079Z,61.10
2017-12-22T06:56:57.070Z,61.40
2017-12-22T06:57:57.046Z,56.30
2017-12-22T06:58:57.022Z,56.50
2017-12-22T06:59:57.008Z,59.80
2017-12-22T07:00:56.991Z,68.70
2017-12-22T07:01:56.971Z,62.10
2017-12-22T07:02:56.949Z,56.60
2017-12-22T07:03:56.930Z,57.40
2017-12-22T07:04:56.915Z,60.00
2017-12-22T07:05:56.890Z,58.10
2017-12-22T07:06:56.870Z,67.30
2017-12-22T07:07:56.849Z,58.30
2017-12-22T07:08:56.842Z,57.20
2017-12-22T07:09:56.820Z,54.70
2017-12-22T07:10:56.792Z,56.50
2017-12-22T07:11:56.785Z,58.70
2017-12-22T07:12:56.756Z,60.60
2017-12-22T07:13:56.739Z,57.00
2017-12-22T07:14:56.720Z,56.70
2017-12-22T07:15:56.699Z,56.80
2017-12-22T07:16:56.690Z,57.40
2017-12-22T07:17:56.659Z,54.80
2017-12-22T07:18:56.642Z,52.90
2017-12-22T07:19:56.621Z,60.70
2017-12-22T07:20:56.611Z,70.50
2017-12-22T07:21:56.589Z,63.50
2017-12-22T07:22:56.565Z,56.00
2017-12-22T07:23:56.550Z,53.90
2017-12-22T07:24:56.527Z,56.80
2017-12-22T07:25:56.520Z,54.50
2017-12-22T07:26:56.491Z,67.70
2017-12-22T07:27:56.471Z,64.10
2017-12-22T07:28:56.455Z,74.50
2017-12-22T07:29:56.468Z,69.60
2017-12-22T07:30:56.420Z,61.00
2017-12-22T07:31:56.402Z,60.40
2017-12-22T07:32:56.380Z,59.70
2017-12-22T07:33:56.360Z,62.80
2017-12-22T07:34:56.340Z,66.30
2017-12-22T07:35:56.327Z,75.90
2017-12-22T07:36:56.310Z,75.90
2017-12-22T07:37:56.283Z,69.40
2017-12-22T07:38:56.268Z,69.80
2017-12-22T07:39:56.251Z,69.50
2017-12-22T07:40:56.229Z,82.10
2017-12-22T07:41:56.209Z,75.80
2017-12-22T07:42:56.190Z,76.50
2017-12-22T07:43:56.177Z,69.20
2017-12-22T07:44:56.159Z,67.90
2017-12-22T07:45:56.180Z,76.20
2017-12-22T07:46:56.121Z,68.20
2017-12-22T07:47:56.101Z,66.10
2017-12-22T07:48:56.102Z,68.70
2017-12-22T07:49:56.065Z,66.30
2017-12-22T07:50:56.045Z,74.30
2017-12-22T07:51:56.037Z,73.40
2017-12-22T07:52:56.010Z,74.60
2017-12-22T07:53:55.992Z,62.50
2017-12-22T07:54:55.969Z,62.60
2017-12-22T07:55:55.951Z,64.00
2017-12-22T07:56:55.931Z,62.70
2017-12-22T07:57:55.916Z,62.10
2017-12-22T07:58:55.891Z,63.60
2017-12-22T07:59:55.876Z,62.60
2017-12-22T08:00:55.850Z,67.80
2017-12-22T08:01:55.836Z,64.60
2017-12-22T08:02:55.812Z,69.50
2017-12-22T08:03:55.795Z,64.30
2017-12-22T08:04:55.779Z,59.80
2017-12-22T08:05:55.755Z,65.20
2017-12-22T08:06:55.739Z,62.30
2017-12-22T08:07:55.720Z,80.30
2017-12-22T08:08:55.699Z,75.10
2017-12-22T08:09:55.683Z,81.70
2017-12-22T08:10:55.659Z,70.40
2017-12-22T08:11:55.644Z,59.70
2017-12-22T08:12:55.630Z,62.20
2017-12-22T08:13:55.605Z,64.70
2017-12-22T08:14:55.584Z,64.10
2017-12-22T08:15:55.566Z,60.90
2017-12-22T08:16:55.556Z,63.00
2017-12-22T08:17:55.529Z,62.90
2017-12-22T08:18:55.509Z,67.00
2017-12-22T08:19:55.492Z,73.90
2017-12-22T08:20:55.474Z,65.30
2017-12-22T08:21:55.455Z,63.30
2017-12-22T08:22:55.439Z,64.80
2017-12-22T08:23:55.418Z,69.50
2017-12-22T08:24:55.398Z,66.60
2017-12-22T08:25:55.380Z,61.00
2017-12-22T08:26:55.363Z,65.10
2017-12-22T08:27:55.347Z,65.80
2017-12-22T08:28:55.324Z,66.90
2017-12-22T08:29:55.308Z,64.40
2017-12-22T08:30:55.291Z,64.70
2017-12-22T08:31:55.270Z,62.20
2017-12-22T08:32:55.257Z,68.00
2017-12-22T08:33:55.238Z,65.20
2017-12-22T08:34:55.217Z,67.30
2017-12-22T08:35:55.199Z,78.20
2017-12-22T08:36:55.174Z,65.40
2017-12-22T08:37:55.161Z,68.90
2017-12-22T08:38:55.143Z,81.00
2017-12-22T08:39:55.122Z,79.90
2017-12-22T08:40:55.107Z,64.00
2017-12-22T08:41:55.089Z,66.40
2017-12-22T08:42:55.072Z,65.10
2017-12-22T08:43:55.090Z,63.60
2017-12-22T08:44:55.036Z,64.90
2017-12-22T08:45:55.016Z,74.20
2017-12-22T08:46:55.000Z,75.80
2017-12-22T08:47:54.979Z,74.60
2017-12-22T08:48:54.964Z,70.20
2017-12-22T08:49:54.952Z,68.90
2017-12-22T08:50:54.932Z,65.40
2017-12-22T08:51:54.898Z,69.90
2017-12-22T08:52:54.884Z,74.80
2017-12-22T08:53:54.870Z,66.90
2017-12-22T08:54:54.849Z,75.50
2017-12-22T08:55:54.827Z,96.90
2017-12-22T08:56:54.811Z,93.10
2017-12-22T08:57:54.788Z,91.30
2017-12-22T08:58:54.770Z,98.00
2017-12-22T08:59:54.754Z,81.00
2017-12-22T09:00:54.731Z,73.90
2017-12-22T09:01:54.717Z,79.20
2017-12-22T09:02:54.701Z,79.60
2017-12-22T09:03:54.810Z,92.20
2017-12-22T09:04:54.661Z,83.90
2017-12-22T09:05:54.689Z,82.00
2017-12-22T09:06:54.628Z,74.90
2017-12-22T09:07:54.604Z,77.40
2017-12-22T09:08:54.590Z,173.70
2017-12-22T09:09:54.703Z,135.30
2017-12-22T09:10:54.553Z,117.70
2017-12-22T09:11:54.539Z,94.70
2017-12-22T09:12:54.513Z,102.00
2017-12-22T09:13:54.509Z,100.90
2017-12-22T09:14:54.477Z,80.80
2017-12-22T09:15:54.469Z,92.40
2017-12-22T09:16:54.439Z,91.40
2017-12-22T09:17:54.429Z,88.50
2017-12-22T09:18:54.415Z,76.00
2017-12-22T09:19:54.397Z,77.10
2017-12-22T09:20:54.380Z,75.00
2017-12-22T09:21:54.359Z,139.70
2017-12-22T09:22:54.330Z,154.10
2017-12-22T09:23:54.424Z,131.90
2017-12-22T09:24:54.298Z,94.70
2017-12-22T09:25:54.286Z,80.70
2017-12-22T09:26:54.261Z,69.40
2017-12-22T09:27:54.253Z,67.10
2017-12-22T09:28:54.224Z,67.90
2017-12-22T09:29:54.209Z,70.10
2017-12-22T09:30:54.188Z,74.40
2017-12-22T09:31:54.169Z,71.40
2017-12-22T09:32:54.159Z,71.80
2017-12-22T09:33:54.134Z,67.80
2017-12-22T09:34:54.116Z,66.00
2017-12-22T09:35:54.153Z,68.00
2017-12-22T09:36:54.087Z,70.40
2017-12-22T09:37:54.078Z,66.40
2017-12-22T09:38:54.039Z,65.20
2017-12-22T09:39:54.030Z,65.30
2017-12-22T09:40:54.008Z,65.30
2017-12-22T09:41:53.998Z,75.70
2017-12-22T09:42:53.970Z,63.40
2017-12-22T09:43:53.959Z,85.30
2017-12-22T09:44:53.940Z,69.00
2017-12-22T09:45:53.976Z,76.40
2017-12-22T09:46:53.904Z,67.10
2017-12-22T09:47:53.881Z,75.40
2017-12-22T09:48:53.860Z,81.70
2017-12-22T09:49:53.854Z,86.40
2017-12-22T09:50:53.825Z,75.80
2017-12-22T09:51:53.807Z,98.60
2017-12-22T09:52:53.803Z,81.40
2017-12-22T09:53:53.774Z,79.40
2017-12-22T09:54:53.759Z,75.10
2017-12-22T09:55:53.743Z,65.90
2017-12-22T09:56:53.716Z,67.70
2017-12-22T09:57:53.704Z,76.10
2017-12-22T09:58:53.685Z,79.50
2017-12-22T09:59:53.662Z,71.80
2017-12-22T10:00:53.645Z,71.10
2017-12-22T10:01:53.628Z,64.80
2017-12-22T10:02:53.616Z,67.30
2017-12-22T10:03:53.598Z,65.20
2017-12-22T10:04:53.579Z,64.00
2017-12-22T10:05:53.558Z,70.20
2017-12-22T10:06:53.536Z,63.00
2017-12-22T10:07:53.524Z,67.70
2017-12-22T10:08:53.507Z,67.20
2017-12-22T10:09:53.517Z,70.90
2017-12-22T10:10:53.472Z,70.20
2017-12-22T10:11:53.449Z,66.30
2017-12-22T10:12:53.430Z,68.00
2017-12-22T10:13:53.415Z,61.70
2017-12-22T10:14:53.398Z,59.60
2017-12-22T10:15:53.380Z,56.30
2017-12-22T10:16:53.369Z,55.70
2017-12-22T10:17:53.349Z,55.40
2017-12-22T10:18:53.329Z,59.30
2017-12-22T10:19:53.359Z,56.40
2017-12-22T10:20:53.296Z,55.90
2017-12-22T10:21:53.337Z,58.50
2017-12-22T10:22:53.255Z,56.60
2017-12-22T10:23:53.248Z,61.70
2017-12-22T10:24:53.218Z,62.30
2017-12-22T10:25:53.310Z,62.60
2017-12-22T10:26:53.181Z,57.50
2017-12-22T10:27:53.278Z,54.10
2017-12-22T10:28:53.149Z,53.40
2017-12-22T10:29:53.138Z,52.50
2017-12-22T10:30:53.123Z,53.70
2017-12-22T10:31:53.200Z,54.40
2017-12-22T10:32:53.081Z,57.20
2017-12-22T10:33:53.066Z,54.10
2017-12-22T10:34:53.054Z,55.40
2017-12-22T10:35:53.140Z,51.40
2017-12-22T10:36:53.012Z,53.00
2017-12-22T10:37:53.097Z,51.00
2017-12-22T10:38:52.973Z,49.10
2017-12-22T10:39:52.958Z,51.40
2017-12-22T10:40:52.942Z,54.40
2017-12-22T10:41:52.940Z,54.50
2017-12-22T10:42:52.903Z,56.00
2017-12-22T10:43:52.992Z,55.00
2017-12-22T10:44:52.880Z,51.00
2017-12-22T10:45:52.949Z,47.30
2017-12-22T10:46:52.840Z,43.30
2017-12-22T10:47:52.824Z,39.70
2017-12-22T10:48:52.800Z,39.90
2017-12-22T10:49:52.782Z,39.40
2017-12-22T10:50:52.769Z,38.70
2017-12-22T10:51:52.753Z,39.60
2017-12-22T10:52:52.753Z,40.80
2017-12-22T10:53:52.716Z,42.10
2017-12-22T10:54:52.698Z,39.90
2017-12-22T10:55:52.682Z,41.40
2017-12-22T10:56:52.659Z,42.30
2017-12-22T10:57:52.689Z,39.60
2017-12-22T10:58:52.625Z,41.20
2017-12-22T10:59:52.615Z,37.70
2017-12-22T11:00:52.596Z,37.60
2017-12-22T11:01:52.570Z,36.20
2017-12-22T11:02:52.565Z,38.80
2017-12-22T11:03:52.539Z,38.20
2017-12-22T11:04:52.565Z,36.40
2017-12-22T11:05:52.502Z,37.90
2017-12-22T11:06:52.479Z,38.90
2017-12-22T11:07:52.461Z,37.90
2017-12-22T11:08:52.445Z,36.00
2017-12-22T11:09:52.425Z,36.60
2017-12-22T11:10:52.410Z,38.40
2017-12-22T11:11:52.401Z,39.20
2017-12-22T11:12:52.376Z,40.00
2017-12-22T11:13:52.359Z,41.80
2017-12-22T11:14:52.337Z,40.50
2017-12-22T11:15:52.332Z,38.30
2017-12-22T11:16:52.312Z,38.10
2017-12-22T11:17:52.297Z,39.90
2017-12-22T11:18:52.278Z,39.50
2017-12-22T11:19:52.253Z,39.50
2017-12-22T11:20:52.245Z,36.90
2017-12-22T11:21:52.216Z,39.70
2017-12-22T11:22:52.216Z,36.30
2017-12-22T11:23:52.184Z,38.20
2017-12-22T11:24:52.164Z,39.40
2017-12-22T11:25:52.145Z,39.70
2017-12-22T11:26:52.130Z,39.70
2017-12-22T11:27:52.110Z,40.10
2017-12-22T11:28:52.095Z,38.10
2017-12-22T11:29:52.080Z,37.70
2017-12-22T11:30:52.058Z,40.00
2017-12-22T11:31:52.048Z,39.40
2017-12-22T11:32:52.020Z,39.50
2017-12-22T11:33:52.065Z,42.80
2017-12-22T11:34:51.989Z,43.30
2017-12-22T11:35:51.967Z,41.60
2017-12-22T11:36:51.950Z,42.40
2017-12-22T11:37:51.933Z,38.20
2017-12-22T11:38:51.924Z,38.70
2017-12-22T11:39:51.899Z,38.70
2017-12-22T11:40:51.880Z,36.50
2017-12-22T11:41:51.859Z,36.00
2017-12-22T11:42:51.851Z,35.60
2017-12-22T11:43:51.830Z,35.10
2017-12-22T11:44:51.807Z,34.20
2017-12-22T11:45:51.801Z,35.20
2017-12-22T11:46:51.776Z,36.50
2017-12-22T11:47:51.760Z,36.30
2017-12-22T11:48:51.739Z,36.00
2017-12-22T11:49:51.767Z,36.40
2017-12-22T11:50:51.708Z,35.90
2017-12-22T11:51:51.698Z,35.80
2017-12-22T11:52:51.672Z,35.10
2017-12-22T11:53:51.653Z,38.10
2017-12-22T11:54:51.630Z,34.90
2017-12-22T11:55:51.619Z,34.10
2017-12-22T11:56:51.601Z,34.20
2017-12-22T11:57:51.580Z,35.40
2017-12-22T11:58:51.560Z,35.70
2017-12-22T11:59:51.541Z,33.80
2017-12-22T12:00:51.527Z,34.70
2017-12-22T12:01:51.517Z,33.00
2017-12-22T12:02:51.492Z,32.90
2017-12-22T12:03:51.469Z,33.60
2017-12-22T12:04:51.460Z,32.70
2017-12-22T12:05:51.439Z,33.50
2017-12-22T12:06:51.423Z,32.00
2017-12-22T12:07:51.400Z,30.60
2017-12-22T12:08:51.390Z,30.80
2017-12-22T12:09:51.438Z,30.90
2017-12-22T12:10:51.346Z,31.60
2017-12-22T12:11:51.330Z,33.20
2017-12-22T12:12:51.310Z,32.40
2017-12-22T12:13:51.297Z,30.80
2017-12-22T12:14:51.279Z,32.60
2017-12-22T12:15:51.257Z,31.30
2017-12-22T12:16:51.240Z,31.90
2017-12-22T12:17:51.233Z,31.50
2017-12-22T12:18:51.211Z,29.60
2017-12-22T12:19:51.193Z,30.80
2017-12-22T12:20:51.170Z,30.90
2017-12-22T12:21:51.157Z,29.20
2017-12-22T12:22:51.146Z,28.60
2017-12-22T12:23:51.120Z,29.50
2017-12-22T12:24:51.099Z,32.80
2017-12-22T12:25:51.082Z,34.50
2017-12-22T12:26:51.077Z,36.80
2017-12-22T12:27:51.049Z,36.50
2017-12-22T12:28:51.035Z,33.50
2017-12-22T12:29:51.012Z,30.50
2017-12-22T12:30:50.997Z,28.60
2017-12-22T12:31:50.980Z,28.70
2017-12-22T12:32:50.965Z,27.60
2017-12-22T12:33:51.010Z,26.30
2017-12-22T12:34:50.926Z,26.70
2017-12-22T12:35:50.912Z,25.00
2017-12-22T12:36:50.895Z,25.60
2017-12-22T12:37:50.878Z,26.50
2017-12-22T12:38:50.859Z,27.50
2017-12-22T12:39:50.841Z,26.40
2017-12-22T12:40:50.819Z,27.20
2017-12-22T12:41:50.816Z,28.30
2017-12-22T12:42:50.788Z,27.90
2017-12-22T12:43:50.769Z,28.90
2017-12-22T12:44:50.755Z,27.00
2017-12-22T12:45:50.736Z,29.00
2017-12-22T12:46:50.716Z,27.90
2017-12-22T12:47:50.698Z,26.60
2017-12-22T12:48:50.684Z,27.20
2017-12-22T12:49:50.668Z,26.00
2017-12-22T12:50:50.650Z,25.60
2017-12-22T12:51:50.631Z,25.50